Millboro, Virginia
Current Conditions -  °F | °C
As of 3:55 PM on Tuesday 21 Oct 2014 (Local Time) from KHSP Reporting Station
Overcast Overcast  
Wind Chill: 40°   Ceiling: 1000
Heat Index: 47°   Visibility: 10mi
Dew Point: 45°   Wind: 16mph
Humidity: 95%   Direction: 290°WNW
Pressure: 29.86"   Gusts: 23mph
Location:  37.98°N, 79.6°W
Report Text: KHSP 211955Z AUTO 29014G20KT 10SM SCT003 BKN010 OVC050 08/07 A2986 RMK AO2 T00810073
Loading
Personal Weather Stations






























Interactive Weather Map New forecast layout! Learn more

10-Day Weather Forecast

Advertisements
Track Severe Weather on mobile